Time;durP1;ratioP1;P1;durP2;ratioP2;P2;SDS_P1;SDS_P2;PMS_P1;PMS_P2;Temp;Humidity;BMP_temperature;BMP_pressure;BME280_temperature;BME280_humidity;BME280_pressure;Samples;Min_cycle;Max_cycle;Signal;HPM_P1;HPM_P2
2022/04/29 00:01:05;;;;;;;108.65;14.60;;;3.70;99.90;;;;;;5061229;28;20502;-83
2022/04/29 00:03:33;;;;;;;490.60;81.43;;;3.70;99.90;;;;;;5036921;28;20479;-83
2022/04/29 00:06:01;;;;;;;164.33;26.10;;;3.70;99.90;;;;;;5034280;28;20427;-83
2022/04/29 00:08:28;;;;;;;795.35;96.75;;;3.70;99.90;;;;;;5048870;28;20600;-83
2022/04/29 00:10:56;;;;;;;192.70;34.75;;;3.60;99.90;;;;;;5033804;28;20389;-84
2022/04/29 00:13:24;;;;;;;137.13;19.10;;;3.50;99.90;;;;;;5032695;28;20386;-83
2022/04/29 00:15:52;;;;;;;191.98;30.45;;;3.50;99.90;;;;;;5033559;28;20480;-82
2022/04/29 00:18:21;;;;;;;67.70;11.70;;;3.50;99.90;;;;;;5032883;28;20390;-83
2022/04/29 00:20:49;;;;;;;94.30;13.37;;;3.50;99.90;;;;;;5036319;28;20389;-83
2022/04/29 00:23:16;;;;;;;221.65;37.55;;;3.50;99.90;;;;;;5053394;28;20583;-82
2022/04/29 00:25:45;;;;;;;143.80;26.00;;;3.60;99.90;;;;;;5067904;28;20479;-83
2022/04/29 00:28:12;;;;;;;192.18;26.75;;;3.60;99.90;;;;;;5034166;28;20596;-83
2022/04/29 00:30:40;;;;;;;119.38;19.50;;;3.60;99.90;;;;;;5033512;28;20930;-83
2022/04/29 00:33:08;;;;;;;466.80;72.13;;;3.60;99.90;;;;;;5051829;28;20445;-82
2022/04/29 00:35:35;;;;;;;155.40;22.58;;;3.50;99.90;;;;;;5051922;28;20438;-82
2022/04/29 00:38:02;;;;;;;249.83;36.17;;;3.60;99.90;;;;;;5035386;28;20384;-82
2022/04/29 00:40:31;;;;;;;551.47;86.57;;;3.40;99.90;;;;;;5051899;28;20441;-82
2022/04/29 00:42:59;;;;;;;823.28;126.47;;;3.30;99.90;;;;;;5033355;28;20428;-82
2022/04/29 00:45:27;;;;;;;516.88;84.70;;;3.20;99.90;;;;;;5032362;28;20446;-83
2022/04/29 00:47:55;;;;;;;359.35;53.22;;;3.30;99.90;;;;;;5050550;28;20475;-83
2022/04/29 00:50:26;;;;;;;11.13;3.27;;;3.30;99.90;;;;;;5067423;28;20392;-82
2022/04/29 00:52:56;;;;;;;63.25;15.38;;;3.20;99.90;;;;;;5050365;28;20379;-82
2022/04/29 00:55:24;;;;;;;186.95;38.08;;;3.20;99.90;;;;;;5051334;28;20388;-83
2022/04/29 00:57:57;;;;;;;1201.10;172.00;;;3.40;99.90;;;;;;5052168;28;20878;-83
2022/04/29 01:00:25;;;;;;;1015.97;137.80;;;3.30;99.90;;;;;;5051226;28;20412;-82
2022/04/29 01:02:54;;;;;;;605.58;89.72;;;3.10;99.90;;;;;;5051658;28;20418;-82
2022/04/29 01:05:25;;;;;;;702.47;99.72;;;3.10;99.90;;;;;;5067816;28;20407;-83
2022/04/29 01:07:53;;;;;;;426.05;79.93;;;3.00;99.90;;;;;;5067729;28;20442;-82
2022/04/29 01:10:24;;;;;;;989.25;132.98;;;3.00;99.90;;;;;;5051356;28;20472;-83
2022/04/29 01:13:02;;;;;;;424.98;54.58;;;3.00;99.90;;;;;;5067625;28;20469;-82
2022/04/29 01:15:31;;;;;;;286.77;40.60;;;3.00;99.90;;;;;;5067804;28;20478;-84
2022/04/29 01:18:06;;;;;;;590.13;83.70;;;3.00;99.90;;;;;;5050785;28;20386;-84
2022/04/29 01:20:36;;;;;;;1238.43;156.18;;;3.00;99.90;;;;;;5067366;28;20396;-81
2022/04/29 01:23:09;;;;;;;453.95;53.40;;;2.90;99.90;;;;;;5051188;28;20873;-82
2022/04/29 01:25:39;;;;;;;591.13;74.72;;;2.80;99.90;;;;;;5051557;28;20397;-82
2022/04/29 01:28:07;;;;;;;1125.00;149.38;;;2.80;99.90;;;;;;5034313;28;20384;-81
2022/04/29 01:30:39;;;;;;;182.50;30.03;;;2.80;99.90;;;;;;5067029;28;20384;-82
2022/04/29 01:33:08;;;;;;;48.22;6.53;;;2.80;99.90;;;;;;5050432;28;20388;-84
2022/04/29 01:35:35;;;;;;;414.55;73.93;;;2.90;99.90;;;;;;5031048;28;20386;-84
2022/04/29 01:38:03;;;;;;;65.43;6.93;;;2.90;99.90;;;;;;5031286;28;20386;-84
2022/04/29 01:40:31;;;;;;;808.13;98.28;;;2.90;99.90;;;;;;5044598;28;20447;-85
2022/04/29 01:43:04;;;;;;;289.50;61.80;;;2.90;99.90;;;;;;5015909;28;20397;-82
2022/04/29 01:45:32;;;;;;;184.43;21.38;;;2.80;99.90;;;;;;5046429;28;20400;-83
2022/04/29 01:48:07;;;;;;;369.23;46.03;;;2.90;99.90;;;;;;5049602;28;20452;-85
2022/04/29 01:50:49;;;;;;;667.88;85.22;;;2.70;99.90;;;;;;5050573;28;20401;-83
2022/04/29 01:53:17;;;;;;;892.78;117.45;;;2.70;99.90;;;;;;5047189;28;20489;-83
2022/04/29 01:55:45;;;;;;;196.57;35.17;;;2.50;99.90;;;;;;5047377;28;20389;-83
2022/04/29 01:58:13;;;;;;;391.33;59.17;;;2.60;99.90;;;;;;5047278;28;20394;-83
2022/04/29 02:00:41;;;;;;;47.58;7.30;;;2.70;99.90;;;;;;5030440;28;20752;-84
2022/04/29 02:03:09;;;;;;;436.48;73.93;;;2.80;99.90;;;;;;5032527;28;20768;-84
2022/04/29 02:05:37;;;;;;;885.97;107.57;;;2.80;99.90;;;;;;5033741;28;20458;-83
2022/04/29 02:08:07;;;;;;;437.23;58.78;;;2.80;99.90;;;;;;5037347;28;20401;-84
2022/04/29 02:10:34;;;;;;;1072.17;135.40;;;2.80;99.90;;;;;;5063961;28;20483;-83
2022/04/29 02:13:03;;;;;;;100.65;14.32;;;2.60;99.90;;;;;;5066644;28;20956;-83
2022/04/29 02:15:39;;;;;;;467.58;58.70;;;2.70;99.90;;;;;;5046995;28;20810;-83
2022/04/29 02:18:11;;;;;;;561.42;75.03;;;2.90;99.90;;;;;;5030492;28;20401;-84
2022/04/29 02:20:38;;;;;;;231.43;38.85;;;2.90;99.90;;;;;;5047063;28;20405;-84
2022/04/29 02:23:06;;;;;;;858.95;108.50;;;2.70;99.90;;;;;;5047021;28;20406;-84
2022/04/29 02:25:33;;;;;;;785.80;129.00;;;2.60;99.90;;;;;;5039006;28;20805;-84
2022/04/29 02:28:01;;;;;;;675.05;111.82;;;2.50;99.90;;;;;;5050149;28;20391;-84
2022/04/29 02:30:30;;;;;;;758.17;109.30;;;2.60;99.90;;;;;;5050630;28;20890;-83
2022/04/29 02:32:58;;;;;;;799.83;116.10;;;2.60;99.90;;;;;;5031499;28;20416;-84
2022/04/29 02:35:25;;;;;;;363.00;53.95;;;2.60;99.90;;;;;;5014056;28;20393;-83
2022/04/29 02:37:54;;;;;;;670.78;86.03;;;2.70;99.90;;;;;;5014137;28;20401;-84
2022/04/29 02:40:23;;;;;;;600.72;85.43;;;2.80;99.90;;;;;;5046758;28;20455;-83
2022/04/29 02:42:51;;;;;;;863.58;106.50;;;2.80;99.90;;;;;;5013908;28;20467;-84
2022/04/29 02:45:20;;;;;;;734.80;78.15;;;2.80;99.90;;;;;;5030025;28;20397;-84
2022/04/29 02:47:50;;;;;;;1334.03;147.65;;;2.70;99.90;;;;;;5014352;28;20472;-83
2022/04/29 02:50:18;;;;;;;1112.53;119.85;;;2.50;99.90;;;;;;5030284;28;20397;-82
2022/04/29 02:52:52;;;;;;;183.70;29.70;;;2.50;99.90;;;;;;5033184;28;20882;-82
2022/04/29 02:55:20;;;;;;;482.27;68.90;;;2.60;99.90;;;;;;5050800;28;20392;-82
2022/04/29 02:58:19;;;;;;;738.47;65.07;;;2.50;99.90;;;;;;5021432;28;20405;-82
2022/04/29 03:00:47;;;;;;;901.45;107.60;;;2.50;99.90;;;;;;5039039;28;20403;-82
2022/04/29 03:03:15;;;;;;;157.35;25.63;;;2.50;99.90;;;;;;5049625;28;20407;-85
2022/04/29 03:05:43;;;;;;;814.83;101.70;;;2.70;99.90;;;;;;5066583;28;20482;-83
2022/04/29 03:08:11;;;;;;;883.08;84.15;;;2.50;99.90;;;;;;5033519;28;20395;-82
2022/04/29 03:10:39;;;;;;;976.80;142.50;;;2.50;99.90;;;;;;5050987;28;20414;-81
2022/04/29 03:13:06;;;;;;;720.33;96.40;;;2.60;99.90;;;;;;5066412;28;20391;-84
2022/04/29 03:15:42;;;;;;;303.88;40.58;;;2.50;99.90;;;;;;5051581;28;20387;-82
2022/04/29 03:18:23;;;;;;;422.65;68.20;;;2.60;99.90;;;;;;5053553;28;20430;-82
2022/04/29 03:20:53;;;;;;;687.83;108.75;;;2.50;99.90;;;;;;5054877;28;20392;-81
2022/04/29 03:23:22;;;;;;;82.28;11.20;;;2.60;99.90;;;;;;5053438;28;20845;-82
2022/04/29 03:25:55;;;;;;;792.85;117.85;;;2.60;99.90;;;;;;5054311;28;20478;-83
2022/04/29 03:28:25;;;;;;;123.00;20.83;;;2.70;99.90;;;;;;5053558;28;20873;-84
2022/04/29 03:30:53;;;;;;;497.52;79.05;;;2.80;99.90;;;;;;5036636;28;20480;-85
2022/04/29 03:33:27;;;;;;;127.13;16.42;;;2.90;99.90;;;;;;5069611;28;20399;-84
2022/04/29 03:35:54;;;;;;;236.02;30.10;;;2.90;99.90;;;;;;5069721;28;20465;-84
2022/04/29 03:38:35;;;;;;;63.97;8.82;;;2.90;99.90;;;;;;5052899;28;20400;-85
2022/04/29 03:41:04;;;;;;;147.30;19.33;;;2.90;99.90;;;;;;5069494;28;20407;-85
2022/04/29 03:43:33;;;;;;;712.25;79.80;;;2.90;99.90;;;;;;5033520;28;20399;-85
2022/04/29 03:46:01;;;;;;;27.40;4.03;;;2.90;99.90;;;;;;5025864;28;20428;-84
2022/04/29 03:51:48;;;;;;;127.75;33.10;;;3.00;99.90;;;;;;5035603;28;20405;-84
2022/04/29 03:54:16;;;;;;;1279.20;121.37;;;3.10;99.90;;;;;;5047603;28;20457;-84
2022/04/29 03:57:04;;;;;;;130.35;18.75;;;3.00;99.90;;;;;;5046086;28;20388;-85
2022/04/29 03:59:32;;;;;;;71.13;8.27;;;3.10;99.90;;;;;;5045370;28;20409;-85
2022/04/29 04:01:59;;;;;;;284.52;36.95;;;3.10;99.90;;;;;;5042413;28;20477;-84
2022/04/29 04:04:27;;;;;;;713.83;81.97;;;3.10;99.90;;;;;;5050137;28;20402;-84
2022/04/29 04:07:01;;;;;;;735.03;97.00;;;3.10;99.90;;;;;;5049245;28;20402;-84
2022/04/29 04:09:39;;;;;;;794.30;120.03;;;3.00;99.90;;;;;;5032704;28;20887;-84
2022/04/29 04:12:10;;;;;;;491.77;85.28;;;3.00;99.90;;;;;;5032718;28;20405;-84
2022/04/29 04:15:00;;;;;;;9.05;2.40;;;2.90;99.90;;;;;;5020687;28;20414;-83
2022/04/29 04:17:33;;;;;;;245.10;34.78;;;3.00;99.90;;;;;;5032544;28;20401;-83
2022/04/29 04:20:02;;;;;;;111.43;16.63;;;3.10;99.90;;;;;;5033873;28;20755;-84
2022/04/29 04:22:36;;;;;;;281.00;37.00;;;3.10;99.90;;;;;;5032579;28;20378;-83
2022/04/29 04:25:08;;;;;;;47.97;6.15;;;3.10;99.90;;;;;;5038545;28;20405;-84
2022/04/29 04:27:35;;;;;;;121.63;15.07;;;3.10;99.90;;;;;;5037848;28;20397;-83
2022/04/29 04:30:04;;;;;;;113.18;13.25;;;3.10;99.90;;;;;;5052267;28;20478;-83
2022/04/29 04:32:39;;;;;;;475.35;64.93;;;3.20;99.90;;;;;;5056670;28;20394;-84
2022/04/29 04:35:07;;;;;;;322.92;51.22;;;3.20;99.90;;;;;;5031865;28;20810;-84
2022/04/29 04:37:35;;;;;;;39.47;7.88;;;3.20;99.90;;;;;;5048299;28;20421;-84
2022/04/29 04:40:06;;;;;;;8.60;2.08;;;3.20;99.90;;;;;;5032518;28;20419;-84
2022/04/29 04:42:53;;;;;;;233.95;44.67;;;3.30;99.90;;;;;;5033195;28;20415;-85
2022/04/29 04:45:32;;;;;;;473.30;69.55;;;3.40;99.90;;;;;;5030882;28;20487;-84
2022/04/29 04:48:32;;;;;;;203.80;36.40;;;3.40;99.90;;;;;;5024011;28;20393;-84
2022/04/29 04:51:23;;;;;;;276.25;42.50;;;3.40;99.90;;;;;;5004520;28;20382;-84
2022/04/29 04:53:54;;;;;;;480.83;59.65;;;3.40;99.90;;;;;;5053762;28;20461;-84
2022/04/29 04:56:23;;;;;;;651.05;121.88;;;3.40;99.90;;;;;;5048216;28;20400;-84
2022/04/29 04:58:51;;;;;;;79.57;18.17;;;3.40;99.90;;;;;;5031838;28;20464;-85
2022/04/29 05:01:20;;;;;;;711.67;101.75;;;3.40;99.90;;;;;;5048074;28;20802;-84
2022/04/29 05:04:11;;;;;;;914.38;96.32;;;3.50;99.90;;;;;;5027278;28;20766;-83
2022/04/29 05:07:13;;;;;;;358.43;65.23;;;3.50;99.90;;;;;;5051036;28;20418;-84
2022/04/29 05:09:41;;;;;;;128.95;16.60;;;3.60;99.90;;;;;;5031447;28;20413;-85
2022/04/29 05:12:10;;;;;;;243.75;34.80;;;3.60;99.90;;;;;;5048222;28;20798;-84
2022/04/29 05:15:02;;;;;;;793.42;105.55;;;3.60;99.90;;;;;;5033064;28;20405;-84
2022/04/29 05:17:30;;;;;;;187.50;25.30;;;3.60;99.90;;;;;;5034519;28;20887;-84
2022/04/29 05:19:58;;;;;;;587.15;63.25;;;3.60;99.90;;;;;;5034073;28;20830;-85
2022/04/29 05:22:29;;;;;;;444.17;63.22;;;3.60;99.90;;;;;;5048053;28;20406;-84
2022/04/29 05:24:57;;;;;;;471.00;61.00;;;3.50;99.90;;;;;;5048229;28;20401;-85
2022/04/29 05:27:44;;;;;;;1383.93;145.13;;;3.60;99.90;;;;;;5033005;28;20385;-84
2022/04/29 05:30:35;;;;;;;39.13;6.55;;;3.60;99.90;;;;;;5029051;28;20764;-83
2022/04/29 05:33:29;;;;;;;65.55;5.70;;;3.50;99.90;;;;;;5020443;28;20915;-84
2022/04/29 05:36:08;;;;;;;91.07;9.40;;;3.50;99.90;;;;;;5051618;28;20391;-84
2022/04/29 05:44:16;;;;;;;339.42;49.30;;;3.70;99.90;;;;;;5049307;28;20630;-85
2022/04/29 05:46:43;;;;;;;587.35;97.38;;;3.70;99.90;;;;;;5050709;28;20380;-85
2022/04/29 05:49:11;;;;;;;79.43;12.20;;;3.80;99.90;;;;;;5050697;28;20438;-85
2022/04/29 05:51:42;;;;;;;411.88;47.65;;;3.80;99.90;;;;;;5067115;28;20387;-84
2022/04/29 05:54:10;;;;;;;769.72;69.70;;;3.90;99.90;;;;;;5067161;28;20479;-85
2022/04/29 05:56:38;;;;;;;519.88;84.78;;;3.90;99.90;;;;;;5033904;28;20398;-85
2022/04/29 05:59:10;;;;;;;185.02;25.67;;;3.90;99.90;;;;;;5066906;28;20425;-83
2022/04/29 06:01:56;;;;;;;549.33;86.77;;;3.90;99.90;;;;;;5051672;28;20387;-83
2022/04/29 06:04:33;;;;;;;902.40;101.63;;;4.00;99.90;;;;;;5050196;28;20416;-83
2022/04/29 06:07:01;;;;;;;257.73;29.00;;;4.00;99.90;;;;;;5050308;28;20430;-83
2022/04/29 06:09:29;;;;;;;823.13;82.00;;;4.00;99.90;;;;;;5050373;28;20870;-84
2022/04/29 06:11:57;;;;;;;502.38;59.40;;;4.10;99.90;;;;;;5050386;28;20801;-83
2022/04/29 06:14:32;;;;;;;734.80;100.13;;;4.10;99.90;;;;;;5050011;28;20388;-84
2022/04/29 06:17:21;;;;;;;417.90;44.80;;;4.20;99.90;;;;;;5029973;28;20445;-84
2022/04/29 06:20:27;;;;;;;112.90;13.38;;;4.20;99.90;;;;;;5051103;28;20402;-83
2022/04/29 06:23:13;;;;;;;170.98;21.80;;;4.20;99.90;;;;;;5051285;28;20382;-84
2022/04/29 06:25:40;;;;;;;623.72;81.47;;;4.20;99.90;;;;;;5066227;28;20403;-83
2022/04/29 06:28:08;;;;;;;161.82;14.75;;;4.20;99.90;;;;;;5066617;28;20449;-83
2022/04/29 06:30:37;;;;;;;216.35;26.38;;;4.20;99.90;;;;;;5066355;28;20391;-83
2022/04/29 06:33:33;;;;;;;1447.20;119.00;;;4.20;99.90;;;;;;5051506;28;20391;-83
2022/04/29 06:36:03;;;;;;;422.67;52.20;;;4.40;99.90;;;;;;5066656;28;20399;-84
2022/04/29 06:38:30;;;;;;;259.53;58.50;;;4.40;99.90;;;;;;5066254;28;20391;-82
2022/04/29 06:41:16;;;;;;;503.00;50.57;;;4.30;99.90;;;;;;5050293;28;20490;-83
2022/04/29 06:44:04;;;;;;;903.67;81.60;;;4.40;99.90;;;;;;5049970;28;20418;-84
2022/04/29 06:46:41;;;;;;;732.58;99.53;;;4.40;99.90;;;;;;5050883;28;20453;-84
2022/04/29 06:49:27;;;;;;;409.50;53.85;;;4.50;99.90;;;;;;5050158;28;20457;-83
2022/04/29 06:52:13;;;;;;;525.75;94.22;;;4.50;99.90;;;;;;5054279;28;20378;-83
2022/04/29 06:54:51;;;;;;;146.93;22.33;;;4.50;99.90;;;;;;5053596;28;20453;-85
2022/04/29 06:57:19;;;;;;;1082.93;94.25;;;4.50;99.90;;;;;;5070457;28;20388;-83
2022/04/29 06:59:46;;;;;;;956.47;101.20;;;4.60;99.90;;;;;;5037426;28;20801;-84
2022/04/29 07:02:15;;;;;;;554.78;73.78;;;4.70;99.90;;;;;;5070639;28;20513;-84
2022/04/29 07:04:43;;;;;;;450.98;51.65;;;4.80;99.90;;;;;;5037238;28;20402;-84
2022/04/29 07:07:11;;;;;;;700.67;59.08;;;4.80;99.90;;;;;;5053597;28;20402;-83
2022/04/29 07:09:39;;;;;;;95.72;10.35;;;4.80;99.90;;;;;;5070384;28;20391;-84
2022/04/29 07:13:03;;;;;;;178.07;23.58;;;4.70;99.90;;;;;;5039238;28;20387;-83
2022/04/29 07:15:31;;;;;;;218.60;43.50;;;4.80;99.90;;;;;;5053587;28;20395;-85
2022/04/29 07:18:11;;;;;;;463.17;49.97;;;4.90;99.90;;;;;;5053924;28;20441;-85
2022/04/29 07:20:39;;;;;;;378.92;53.45;;;5.00;99.90;;;;;;5053752;28;20390;-84
2022/04/29 07:23:07;;;;;;;466.88;31.92;;;5.10;99.90;;;;;;5054614;28;20383;-84
2022/04/29 07:25:34;;;;;;;1091.53;100.85;;;5.10;99.90;;;;;;5060933;28;20918;-83
2022/04/29 07:28:02;;;;;;;880.17;97.55;;;5.00;99.90;;;;;;5035002;28;20415;-85
2022/04/29 07:30:30;;;;;;;213.03;23.60;;;5.20;99.90;;;;;;5049948;28;20772;-83
2022/04/29 07:33:07;;;;;;;444.07;61.13;;;5.10;99.90;;;;;;5050599;28;20451;-84
2022/04/29 07:41:45;;;;;;;432.63;50.47;;;5.20;99.90;;;;;;5034752;28;20401;-84
2022/04/29 07:44:16;;;;;;;336.35;48.05;;;5.20;99.90;;;;;;5049915;28;20402;-84
2022/04/29 07:46:47;;;;;;;593.07;59.10;;;5.20;99.90;;;;;;5034782;28;20397;-84
2022/04/29 07:49:33;;;;;;;401.92;60.05;;;5.20;99.90;;;;;;5034817;28;20444;-84
2022/04/29 07:52:01;;;;;;;257.20;35.38;;;5.30;99.90;;;;;;5049926;28;20448;-84
2022/04/29 07:54:32;;;;;;;441.50;52.08;;;5.30;99.90;;;;;;5033263;28;20767;-83
2022/04/29 07:57:00;;;;;;;1035.30;99.05;;;5.50;99.90;;;;;;5033141;28;20394;-84
2022/04/29 07:59:28;;;;;;;22.38;1.52;;;5.50;99.90;;;;;;5049469;28;20408;-84
2022/04/29 08:02:27;;;;;;;330.85;26.92;;;5.40;99.90;;;;;;5033458;28;20459;-84
2022/04/29 08:04:56;;;;;;;545.95;57.25;;;5.50;99.90;;;;;;5032679;28;20405;-84
2022/04/29 08:07:23;;;;;;;583.17;74.35;;;5.70;99.90;;;;;;5034056;28;20424;-84
2022/04/29 08:09:51;;;;;;;335.17;60.75;;;5.70;99.90;;;;;;5032587;28;20390;-84
2022/04/29 08:12:19;;;;;;;244.65;29.45;;;5.70;99.90;;;;;;5032791;28;20883;-84
2022/04/29 08:15:27;;;;;;;732.20;101.15;;;5.70;99.90;;;;;;4972683;28;20413;-83
2022/04/29 08:18:19;;;;;;;432.95;40.00;;;5.80;99.90;;;;;;4969459;28;20405;-83
2022/04/29 08:20:47;;;;;;;722.42;76.65;;;5.80;99.90;;;;;;4998242;28;20402;-84
2022/04/29 08:23:14;;;;;;;161.30;16.20;;;5.80;99.90;;;;;;5035892;28;20446;-83
2022/04/29 08:25:42;;;;;;;162.23;17.35;;;5.80;99.90;;;;;;5052312;28;20432;-85
2022/04/29 08:28:11;;;;;;;428.13;62.37;;;5.90;99.90;;;;;;5029200;28;20413;-84
2022/04/29 08:30:40;;;;;;;204.85;19.30;;;5.90;99.90;;;;;;5051725;28;20464;-85
2022/04/29 08:33:14;;;;;;;575.47;62.40;;;5.80;99.90;;;;;;5052196;28;20489;-84
2022/04/29 08:35:45;;;;;;;445.58;49.83;;;6.00;99.90;;;;;;5036489;28;20490;-85
2022/04/29 08:38:13;;;;;;;213.73;30.58;;;6.10;99.90;;;;;;5068712;28;20431;-85
2022/04/29 08:40:57;;;;;;;599.90;80.37;;;6.10;99.90;;;;;;5037207;28;20404;-85
2022/04/29 08:43:28;;;;;;;1661.30;119.22;;;6.20;99.90;;;;;;5052135;28;20395;-84
2022/04/29 08:46:01;;;;;;;136.38;14.27;;;6.30;99.90;;;;;;5068443;28;20406;-85
2022/04/29 08:48:52;;;;;;;238.90;28.52;;;6.30;99.90;;;;;;5032945;28;20436;-86
2022/04/29 08:51:20;;;;;;;179.70;19.02;;;6.30;99.90;;;;;;5055105;28;20415;-85
2022/04/29 08:53:48;;;;;;;361.63;49.47;;;6.20;99.90;;;;;;5024424;28;20398;-86
2022/04/29 08:59:03;;;;;;;686.73;60.33;;;6.20;99.90;;;;;;5052795;28;20424;-85
2022/04/29 09:01:31;;;;;;;1245.63;123.78;;;6.40;99.90;;;;;;5044159;28;20815;-85
2022/04/29 09:03:59;;;;;;;300.92;41.90;;;6.30;99.90;;;;;;5031679;28;20402;-84
2022/04/29 09:06:28;;;;;;;807.00;82.40;;;6.40;99.90;;;;;;5048092;28;20407;-84
2022/04/29 09:09:08;;;;;;;464.75;69.22;;;6.40;99.90;;;;;;5042317;28;20946;-85
2022/04/29 09:11:36;;;;;;;381.15;39.40;;;6.30;99.90;;;;;;5031633;28;20401;-85
2022/04/29 09:14:23;;;;;;;628.13;68.30;;;6.40;99.90;;;;;;5031151;28;20429;-84
2022/04/29 09:16:51;;;;;;;331.75;33.15;;;6.50;99.90;;;;;;5032838;28;20400;-85
2022/04/29 09:19:33;;;;;;;398.50;51.47;;;6.50;99.90;;;;;;5047836;28;20389;-85
2022/04/29 09:22:07;;;;;;;406.40;37.30;;;6.70;99.90;;;;;;5031377;28;20424;-84
2022/04/29 09:25:03;;;;;;;143.70;15.93;;;6.70;99.60;;;;;;5047294;28;20403;-84
2022/04/29 09:28:07;;;;;;;407.73;48.35;;;6.70;99.90;;;;;;5024841;28;21042;-85
2022/04/29 09:31:04;;;;;;;113.80;8.70;;;6.90;99.90;;;;;;5023455;28;20393;-85
2022/04/29 09:33:56;;;;;;;671.15;69.57;;;6.80;99.90;;;;;;5045522;28;20520;-82
2022/04/29 09:36:47;;;;;;;249.88;27.63;;;6.90;99.90;;;;;;5024380;28;20502;-84
2022/04/29 09:39:26;;;;;;;562.60;56.07;;;7.00;99.90;;;;;;5040119;28;20500;-85
2022/04/29 09:42:04;;;;;;;560.13;50.50;;;7.00;99.10;;;;;;5031211;28;20393;-85
2022/04/29 09:44:35;;;;;;;53.95;4.43;;;6.90;99.50;;;;;;5035700;28;20393;-83
2022/04/29 09:47:20;;;;;;;336.38;39.30;;;7.00;99.90;;;;;;5047563;28;20401;-82
2022/04/29 09:49:56;;;;;;;118.03;11.02;;;7.20;99.90;;;;;;5047647;28;20389;-82
2022/04/29 09:52:24;;;;;;;518.30;54.10;;;7.30;99.80;;;;;;5032291;28;20930;-84
2022/04/29 09:54:53;;;;;;;769.63;55.30;;;7.50;99.90;;;;;;5050588;28;20395;-84
2022/04/29 09:57:24;;;;;;;767.55;78.53;;;7.60;98.90;;;;;;5043317;28;20397;-84
2022/04/29 09:59:55;;;;;;;204.38;22.58;;;7.40;97.20;;;;;;5031978;28;20406;-83
2022/04/29 10:02:24;;;;;;;616.72;61.03;;;7.40;98.20;;;;;;5031379;28;20399;-83
2022/04/29 10:04:59;;;;;;;473.63;48.72;;;7.50;98.10;;;;;;5014176;28;22288;-83
2022/04/29 10:07:28;;;;;;;701.40;60.00;;;7.40;97.20;;;;;;5030760;28;20520;-83
2022/04/29 10:09:59;;;;;;;352.42;43.38;;;7.30;96.00;;;;;;5031043;28;20488;-84
2022/04/29 10:12:29;;;;;;;200.77;28.70;;;7.50;98.20;;;;;;5048155;28;20401;-84
2022/04/29 10:15:20;;;;;;;475.77;52.88;;;7.60;99.80;;;;;;5045788;28;20419;-84
2022/04/29 10:23:48;;;;;;;264.23;32.65;;;7.30;97.10;;;;;;5030612;28;20622;-84
2022/04/29 10:26:18;;;;;;;65.53;9.45;;;7.10;96.20;;;;;;5046142;28;20882;-84
2022/04/29 10:28:45;;;;;;;74.00;8.90;;;7.40;98.70;;;;;;5048068;28;20403;-84
2022/04/29 10:31:19;;;;;;;750.72;69.82;;;7.50;96.90;;;;;;5032503;28;20389;-83
2022/04/29 10:33:47;;;;;;;104.22;13.90;;;7.50;96.70;;;;;;5039504;28;20393;-83
2022/04/29 10:36:24;;;;;;;302.97;40.63;;;7.50;98.50;;;;;;5046975;28;20416;-84
2022/04/29 10:39:02;;;;;;;253.10;29.60;;;7.50;97.80;;;;;;5047052;28;20410;-84
2022/04/29 10:41:30;;;;;;;96.85;22.00;;;7.50;97.20;;;;;;5037209;28;20928;-84
2022/04/29 10:43:58;;;;;;;148.77;17.45;;;7.50;98.80;;;;;;5032837;28;20400;-84
2022/04/29 10:46:36;;;;;;;342.13;41.72;;;7.50;96.90;;;;;;5049971;28;20488;-84
2022/04/29 10:49:30;;;;;;;528.67;60.70;;;7.30;95.10;;;;;;5066497;28;20897;-84
2022/04/29 10:52:30;;;;;;;290.83;44.40;;;7.50;95.60;;;;;;4987204;28;20405;-83
2022/04/29 10:55:24;;;;;;;545.28;62.53;;;7.60;97.70;;;;;;5040262;28;20408;-84
2022/04/29 10:58:00;;;;;;;166.55;28.23;;;7.60;96.90;;;;;;5031273;28;20398;-83
2022/04/29 11:00:29;;;;;;;342.13;46.10;;;7.70;99.00;;;;;;5046592;28;20903;-83
2022/04/29 11:03:47;;;;;;;13.30;1.17;;;7.90;98.30;;;;;;5013697;28;20824;-84
2022/04/29 11:06:15;;;;;;;365.92;39.17;;;7.70;96.30;;;;;;5044723;28;20412;-84
2022/04/29 11:08:48;;;;;;;237.03;26.87;;;7.50;96.50;;;;;;5013613;28;20872;-83
2022/04/29 11:11:15;;;;;;;15.02;1.60;;;7.60;95.40;;;;;;5046449;28;20475;-83
2022/04/29 11:14:00;;;;;;;162.45;21.80;;;7.60;96.30;;;;;;5054999;28;20469;-84
2022/04/29 11:17:11;;;;;;;427.17;48.38;;;8.00;96.30;;;;;;5014330;28;20398;-84
2022/04/29 11:19:48;;;;;;;246.82;33.53;;;8.20;95.70;;;;;;5027089;28;20394;-84
2022/04/29 11:25:10;;;;;;;487.77;61.05;;;8.50;94.30;;;;;;5041335;28;20388;-83
2022/04/29 11:27:41;;;;;;;241.85;21.35;;;8.50;93.60;;;;;;5049784;28;20594;-84
2022/04/29 11:30:29;;;;;;;259.45;25.70;;;8.40;92.70;;;;;;5029581;28;20388;-83
2022/04/29 11:32:58;;;;;;;450.70;35.30;;;8.20;94.60;;;;;;5013478;28;20394;-83
2022/04/29 11:35:26;;;;;;;114.55;12.30;;;8.00;93.80;;;;;;5013780;28;20402;-84
2022/04/29 11:37:53;;;;;;;373.88;39.33;;;7.90;95.80;;;;;;5015933;28;20436;-84
2022/04/29 11:40:21;;;;;;;786.75;64.95;;;7.90;93.90;;;;;;5048712;28;20953;-84
2022/04/29 11:42:52;;;;;;;241.00;21.80;;;8.00;92.80;;;;;;5036404;28;20512;-84
2022/04/29 11:45:22;;;;;;;260.75;24.55;;;8.00;93.90;;;;;;5044740;28;20477;-84
2022/04/29 11:47:50;;;;;;;486.30;60.17;;;8.10;93.60;;;;;;5033540;28;20405;-84
2022/04/29 11:50:30;;;;;;;50.72;6.25;;;8.00;93.50;;;;;;5033329;28;20484;-84
2022/04/29 11:53:07;;;;;;;236.82;28.83;;;7.90;95.10;;;;;;5049934;28;20481;-84
2022/04/29 11:55:35;;;;;;;353.30;40.65;;;7.90;93.90;;;;;;5034523;28;20420;-83
2022/04/29 11:58:04;;;;;;;14.13;1.50;;;8.20;93.40;;;;;;5034559;28;20392;-84
2022/04/29 12:00:35;;;;;;;124.95;16.35;;;8.30;93.50;;;;;;5034555;28;20517;-85
2022/04/29 12:03:05;;;;;;;175.82;16.45;;;8.60;93.20;;;;;;5048478;28;21017;-83
2022/04/29 12:05:33;;;;;;;846.78;76.28;;;8.60;93.70;;;;;;5064461;28;20454;-84
2022/04/29 12:08:05;;;;;;;210.10;19.45;;;8.80;92.50;;;;;;5065171;28;20415;-84
2022/04/29 12:10:45;;;;;;;547.22;65.65;;;8.70;92.90;;;;;;5030469;28;20399;-84
2022/04/29 12:13:12;;;;;;;156.35;20.13;;;8.70;91.00;;;;;;5044804;28;20430;-84
2022/04/29 12:15:43;;;;;;;506.15;57.53;;;8.80;93.90;;;;;;5053814;28;20396;-84
2022/04/29 12:18:15;;;;;;;325.63;26.83;;;9.10;91.50;;;;;;5050374;28;20432;-84
2022/04/29 12:20:58;;;;;;;639.05;66.18;;;9.00;92.60;;;;;;5017322;28;20422;-84
2022/04/29 12:23:32;;;;;;;252.77;29.83;;;8.80;90.90;;;;;;5054825;28;20475;-84
2022/04/29 12:26:01;;;;;;;397.65;42.33;;;8.60;92.10;;;;;;5050341;28;20422;-83
2022/04/29 12:28:30;;;;;;;19.45;2.33;;;8.40;90.50;;;;;;5050618;28;20391;-84
2022/04/29 12:36:57;;;;;;;287.60;31.67;;;8.10;93.00;;;;;;5049021;28;20460;-84
2022/04/29 12:39:35;;;;;;;210.43;23.70;;;8.30;92.90;;;;;;5032446;28;20416;-84
2022/04/29 12:42:06;;;;;;;298.05;34.25;;;8.30;91.50;;;;;;5033528;28;20440;-84
2022/04/29 12:47:41;;;;;;;868.13;72.07;;;8.70;89.30;;;;;;5048297;28;20420;-83
2022/04/29 12:50:19;;;;;;;202.23;23.67;;;8.90;90.60;;;;;;5033734;28;20393;-84
2022/04/29 12:53:00;;;;;;;111.60;11.00;;;9.00;90.40;;;;;;5033404;28;20386;-83
2022/04/29 12:55:30;;;;;;;198.80;19.38;;;9.00;91.20;;;;;;5033367;28;20477;-84
2022/04/29 12:58:06;;;;;;;107.85;8.93;;;8.60;90.00;;;;;;5032156;28;20400;-85
2022/04/29 13:01:08;;;;;;;53.50;4.50;;;8.40;91.10;;;;;;5048150;28;20409;-84
2022/04/29 13:03:58;;;;;;;119.70;15.88;;;8.40;91.40;;;;;;5048660;28;20416;-85
2022/04/29 13:06:48;;;;;;;158.37;15.33;;;8.50;90.80;;;;;;5032570;28;20599;-84
2022/04/29 13:09:16;;;;;;;160.63;17.45;;;8.40;90.60;;;;;;5044989;28;20394;-84
2022/04/29 13:11:44;;;;;;;119.35;11.80;;;8.40;91.80;;;;;;5033027;28;20875;-83
2022/04/29 13:14:25;;;;;;;288.20;29.30;;;8.30;89.40;;;;;;5031752;28;20824;-83
2022/04/29 13:16:52;;;;;;;204.55;25.67;;;8.40;90.20;;;;;;5032190;28;20448;-85
2022/04/29 13:19:20;;;;;;;66.60;8.18;;;8.60;89.60;;;;;;5032428;28;20412;-84
2022/04/29 13:21:47;;;;;;;102.57;11.23;;;8.60;89.80;;;;;;5033189;28;20481;-85
2022/04/29 13:24:15;;;;;;;4.93;0.80;;;8.80;87.70;;;;;;5031552;28;20459;-83
2022/04/29 13:26:46;;;;;;;242.95;31.92;;;8.70;90.40;;;;;;5048393;28;20409;-84
2022/04/29 13:29:15;;;;;;;44.70;7.50;;;8.60;88.50;;;;;;5032827;28;20477;-83
2022/04/29 13:31:43;;;;;;;73.47;11.20;;;8.50;86.40;;;;;;5031437;28;20745;-83
2022/04/29 13:34:10;;;;;;;585.83;63.67;;;8.50;87.00;;;;;;5032770;28;20880;-83
2022/04/29 13:36:38;;;;;;;323.30;26.48;;;8.70;84.70;;;;;;5032525;28;20397;-83